createdAt,value
2022-12-06T00:01:35.045Z,20.73
2022-12-06T00:04:05.354Z,19.07
2022-12-06T00:06:36.473Z,20.80
2022-12-06T00:09:04.232Z,21.03
2022-12-06T00:11:33.916Z,19.10
2022-12-06T00:14:05.115Z,19.60
2022-12-06T00:16:33.593Z,19.77
2022-12-06T00:19:01.562Z,21.27
2022-12-06T00:21:31.420Z,19.67
2022-12-06T00:24:01.630Z,20.47
2022-12-06T00:26:29.399Z,18.63
2022-12-06T00:28:59.195Z,18.20
2022-12-06T00:31:29.663Z,19.17
2022-12-06T00:33:57.062Z,18.33
2022-12-06T00:36:29.501Z,21.13
2022-12-06T00:38:58.987Z,18.93
2022-12-06T00:41:26.537Z,18.20
2022-12-06T00:43:54.005Z,21.37
2022-12-06T00:46:24.401Z,20.40
2022-12-06T00:48:53.208Z,20.23
2022-12-06T00:51:22.640Z,20.43
2022-12-06T00:53:50.585Z,19.30
2022-12-06T00:56:18.318Z,21.97
2022-12-06T00:58:46.421Z,22.97
2022-12-06T01:01:16.822Z,20.33
2022-12-06T01:03:45.406Z,20.90
2022-12-06T01:06:15.986Z,20.53
2022-12-06T01:08:43.899Z,20.30
2022-12-06T01:11:13.453Z,21.10
2022-12-06T01:13:40.557Z,21.60
2022-12-06T01:16:18.819Z,22.23
2022-12-06T01:18:46.877Z,21.67
2022-12-06T01:21:16.372Z,22.43
2022-12-06T01:23:44.983Z,22.87
2022-12-06T01:26:19.848Z,21.77
2022-12-06T01:28:47.586Z,21.00
2022-12-06T01:31:15.883Z,20.47
2022-12-06T01:33:43.674Z,20.77
2022-12-06T01:36:20.506Z,19.63
2022-12-06T01:38:58.838Z,21.53
2022-12-06T01:41:27.261Z,21.07
2022-12-06T01:43:54.851Z,20.40
2022-12-06T01:46:44.262Z,22.77
2022-12-06T01:49:19.202Z,21.47
2022-12-06T01:51:51.905Z,19.93
2022-12-06T01:54:20.754Z,21.27
2022-12-06T01:56:50.069Z,23.23
2022-12-06T01:59:17.478Z,22.53
2022-12-06T02:01:46.050Z,22.77
2022-12-06T02:04:13.750Z,20.23
2022-12-06T02:06:41.163Z,21.07
2022-12-06T02:09:10.261Z,20.47
2022-12-06T02:11:37.817Z,23.37
2022-12-06T02:14:10.705Z,23.03
2022-12-06T02:17:01.292Z,22.03
2022-12-06T02:19:59.583Z,22.73
2022-12-06T02:22:29.755Z,22.93
2022-12-06T02:25:06.189Z,22.70
2022-12-06T02:28:10.452Z,21.80
2022-12-06T02:31:00.219Z,22.50
2022-12-06T02:33:39.532Z,19.87
2022-12-06T02:36:18.270Z,21.37
2022-12-06T02:38:56.395Z,21.60
2022-12-06T02:41:28.682Z,21.37
2022-12-06T02:44:00.273Z,22.20
2022-12-06T02:46:31.541Z,22.93
2022-12-06T02:49:02.624Z,21.93
2022-12-06T02:51:31.912Z,22.67
2022-12-06T02:54:01.290Z,23.63
2022-12-06T02:56:32.064Z,22.40
2022-12-06T02:58:59.651Z,23.53
2022-12-06T03:01:51.143Z,22.23
2022-12-06T03:04:33.347Z,22.17
2022-12-06T03:07:21.845Z,21.93
2022-12-06T03:10:17.445Z,21.47
2022-12-06T03:13:41.012Z,18.83
2022-12-06T03:16:19.572Z,22.40
2022-12-06T03:18:50.735Z,22.00
2022-12-06T03:21:29.150Z,21.07
2022-12-06T03:23:56.734Z,21.57
2022-12-06T03:26:28.130Z,22.07
2022-12-06T03:28:58.152Z,21.70
2022-12-06T03:31:27.268Z,21.63
2022-12-06T03:34:11.960Z,24.13
2022-12-06T03:36:41.388Z,23.03
2022-12-06T03:39:09.668Z,22.10
2022-12-06T03:41:55.457Z,21.23
2022-12-06T03:44:23.497Z,23.30
2022-12-06T03:46:55.352Z,22.47
2022-12-06T03:49:28.906Z,23.17
2022-12-06T03:51:56.255Z,23.00
2022-12-06T03:54:23.473Z,22.97
2022-12-06T03:56:50.547Z,20.93
2022-12-06T03:59:17.708Z,21.90
2022-12-06T04:01:44.839Z,22.53
2022-12-06T04:04:12.159Z,22.37
2022-12-06T04:06:39.270Z,22.37
2022-12-06T04:09:24.878Z,24.00
2022-12-06T04:11:51.870Z,23.80
2022-12-06T04:14:18.848Z,23.30
2022-12-06T04:17:04.744Z,21.43
2022-12-06T04:19:31.875Z,23.13
2022-12-06T04:22:17.510Z,23.43
2022-12-06T04:24:44.580Z,23.73
2022-12-06T04:27:30.373Z,24.10
2022-12-06T04:30:15.990Z,24.10
2022-12-06T04:33:01.640Z,25.00
2022-12-06T04:35:47.501Z,24.13
2022-12-06T04:38:32.963Z,23.83
2022-12-06T04:41:00.042Z,23.67
2022-12-06T04:43:42.290Z,24.53
2022-12-06T04:46:10.901Z,25.87
2022-12-06T04:48:38.603Z,26.00
2022-12-06T04:51:06.158Z,25.60
2022-12-06T04:53:33.368Z,25.47
2022-12-06T04:56:01.086Z,26.70
2022-12-06T04:58:28.073Z,25.33
2022-12-06T05:00:55.840Z,26.23
2022-12-06T05:03:23.043Z,23.37
2022-12-06T05:05:50.539Z,24.97
2022-12-06T05:08:17.691Z,24.97
2022-12-06T05:10:49.661Z,24.87
2022-12-06T05:13:17.992Z,23.77
2022-12-06T05:15:57.299Z,24.03
2022-12-06T05:18:25.777Z,23.47
2022-12-06T05:21:05.854Z,22.40
2022-12-06T05:23:34.375Z,24.23
2022-12-06T05:26:03.087Z,22.43
2022-12-06T05:28:32.880Z,25.07
2022-12-06T05:31:00.056Z,24.53
2022-12-06T05:33:27.763Z,23.37
2022-12-06T05:35:54.893Z,22.53
2022-12-06T05:38:22.559Z,22.13
2022-12-06T05:40:49.980Z,23.33
2022-12-06T05:43:17.593Z,23.60
2022-12-06T05:45:44.990Z,23.03
2022-12-06T05:48:12.121Z,23.60
2022-12-06T05:50:39.203Z,22.20
2022-12-06T05:53:06.506Z,21.93
2022-12-06T05:55:33.531Z,22.87
2022-12-06T05:58:00.585Z,21.57
2022-12-06T06:00:27.675Z,22.23
2022-12-06T06:02:54.836Z,21.93
2022-12-06T06:05:22.239Z,20.77
2022-12-06T06:07:49.364Z,19.27
2022-12-06T06:10:17.117Z,18.87
2022-12-06T06:12:44.830Z,19.87
2022-12-06T06:15:13.197Z,19.80
2022-12-06T06:17:40.945Z,18.20
2022-12-06T06:20:09.628Z,18.33
2022-12-06T06:22:38.878Z,18.17
2022-12-06T06:25:07.055Z,19.17
2022-12-06T06:27:37.719Z,18.13
2022-12-06T06:30:08.462Z,17.43
2022-12-06T06:32:36.079Z,17.40
2022-12-06T06:35:04.108Z,17.53
2022-12-06T06:37:32.482Z,18.37
2022-12-06T06:40:00.681Z,16.53
2022-12-06T06:42:28.152Z,18.53
2022-12-06T06:44:55.578Z,16.30
2022-12-06T06:47:23.412Z,17.37
2022-12-06T06:49:50.555Z,18.47
2022-12-06T06:52:17.630Z,17.80
2022-12-06T06:54:44.623Z,18.67
2022-12-06T06:57:17.364Z,17.83
2022-12-06T06:59:45.934Z,18.53
2022-12-06T07:02:17.546Z,17.50
2022-12-06T07:04:45.382Z,18.63
2022-12-06T07:07:19.303Z,18.93
2022-12-06T07:09:48.023Z,18.30
2022-12-06T07:12:15.533Z,17.90
2022-12-06T07:14:42.563Z,17.93
2022-12-06T07:17:09.683Z,17.63
2022-12-06T07:19:36.798Z,18.47
2022-12-06T07:22:03.838Z,18.67
2022-12-06T07:24:30.903Z,17.30
2022-12-06T07:26:57.937Z,18.57
2022-12-06T07:29:24.994Z,18.07
2022-12-06T07:31:52.001Z,17.10
2022-12-06T07:34:19.090Z,18.30
2022-12-06T07:36:46.177Z,19.03
2022-12-06T07:39:14.923Z,18.33
2022-12-06T07:42:00.923Z,18.67
2022-12-06T07:45:00.001Z,18.13
2022-12-06T07:47:37.630Z,17.53
2022-12-06T07:50:06.678Z,17.50
2022-12-06T07:52:34.895Z,16.90
2022-12-06T07:55:03.555Z,17.30
2022-12-06T07:57:30.906Z,17.60
2022-12-06T07:59:58.144Z,17.63
2022-12-06T08:02:27.340Z,18.10
2022-12-06T08:04:55.441Z,16.17
2022-12-06T08:07:23.348Z,16.43
2022-12-06T08:09:51.874Z,16.37
2022-12-06T08:12:19.603Z,17.73
2022-12-06T08:14:46.719Z,17.37
2022-12-06T08:17:15.279Z,17.03
2022-12-06T08:19:42.275Z,17.40
2022-12-06T08:22:09.276Z,16.13
2022-12-06T08:24:36.306Z,16.87
2022-12-06T08:27:03.361Z,15.70
2022-12-06T08:29:30.933Z,15.90
2022-12-06T08:31:58.334Z,16.63
2022-12-06T08:34:25.389Z,16.87
2022-12-06T08:36:52.408Z,15.20
2022-12-06T08:39:19.511Z,15.80
2022-12-06T08:41:55.392Z,16.50
2022-12-06T08:44:22.785Z,15.30
2022-12-06T08:46:49.994Z,17.07
2022-12-06T08:49:17.826Z,15.93
2022-12-06T08:51:45.855Z,16.33
2022-12-06T08:54:15.449Z,15.17
2022-12-06T08:56:42.680Z,14.63
2022-12-06T08:59:09.989Z,15.90
2022-12-06T09:01:38.281Z,14.93
2022-12-06T09:04:07.934Z,14.73
2022-12-06T09:06:37.854Z,15.33
2022-12-06T09:09:05.523Z,15.60
2022-12-06T09:11:32.663Z,19.13
2022-12-06T09:13:59.791Z,19.13
2022-12-06T09:16:26.900Z,18.83
2022-12-06T09:18:54.173Z,16.93
2022-12-06T09:21:25.013Z,17.23
2022-12-06T09:23:55.636Z,17.13
2022-12-06T09:26:23.038Z,17.43
2022-12-06T09:28:50.846Z,17.20
2022-12-06T09:31:19.139Z,17.83
2022-12-06T09:33:47.975Z,17.83
2022-12-06T09:36:23.022Z,17.67
2022-12-06T09:39:13.939Z,18.03
2022-12-06T09:41:53.013Z,17.47
2022-12-06T09:44:20.505Z,17.30
2022-12-06T09:47:14.911Z,15.87
2022-12-06T09:50:03.444Z,14.50
2022-12-06T09:53:09.731Z,14.43
2022-12-06T09:55:58.220Z,11.97
2022-12-06T09:58:33.933Z,12.20
2022-12-06T10:01:25.055Z,11.27
2022-12-06T10:03:54.961Z,12.37
2022-12-06T10:06:25.213Z,11.70
2022-12-06T10:09:07.603Z,11.03
2022-12-06T10:11:48.754Z,10.97
2022-12-06T10:14:27.864Z,11.03
2022-12-06T10:17:03.150Z,10.93
2022-12-06T10:19:58.126Z,10.80
2022-12-06T10:23:02.970Z,11.10
2022-12-06T10:25:42.983Z,13.80
2022-12-06T10:28:25.402Z,13.30
2022-12-06T10:30:56.715Z,14.13
2022-12-06T10:33:52.810Z,13.67
2022-12-06T10:36:30.471Z,11.87
2022-12-06T10:39:11.197Z,14.90
2022-12-06T10:41:48.587Z,15.97
2022-12-06T10:44:27.776Z,15.70
2022-12-06T10:47:13.069Z,18.77
2022-12-06T10:49:49.267Z,19.07
2022-12-06T10:52:40.945Z,19.57
2022-12-06T10:55:13.474Z,16.03
2022-12-06T10:57:59.383Z,18.10
2022-12-06T11:00:28.785Z,18.27
2022-12-06T11:02:58.806Z,16.57
2022-12-06T11:05:42.150Z,16.63
2022-12-06T11:08:20.604Z,14.83
2022-12-06T11:10:48.298Z,14.60
2022-12-06T11:13:59.546Z,15.13
2022-12-06T11:16:45.589Z,14.40
2022-12-06T11:19:34.261Z,13.70
2022-12-06T11:22:21.360Z,14.80
2022-12-06T11:24:53.560Z,14.97
2022-12-06T11:27:36.698Z,14.30
2022-12-06T11:30:19.583Z,15.07
2022-12-06T11:32:50.058Z,15.23
2022-12-06T11:35:25.322Z,15.57
2022-12-06T11:37:57.582Z,16.93
2022-12-06T11:40:27.433Z,17.13
2022-12-06T11:42:56.302Z,16.57
2022-12-06T11:45:27.406Z,17.20
2022-12-06T11:47:56.227Z,17.80
2022-12-06T11:50:24.712Z,18.37
2022-12-06T11:53:06.786Z,17.07
2022-12-06T11:55:55.973Z,17.63
2022-12-06T11:58:29.493Z,17.93
2022-12-06T12:01:11.042Z,17.50
2022-12-06T12:03:40.956Z,17.83
2022-12-06T12:06:23.587Z,18.97
2022-12-06T12:09:06.588Z,17.43
2022-12-06T12:11:40.060Z,19.77
2022-12-06T12:14:36.386Z,18.23
2022-12-06T12:17:04.448Z,18.57
2022-12-06T12:19:40.553Z,18.30
2022-12-06T12:22:14.973Z,18.73
2022-12-06T12:27:56.146Z,16.47
2022-12-06T12:30:28.081Z,20.23
2022-12-06T12:33:07.198Z,19.97
2022-12-06T12:35:38.792Z,19.47
2022-12-06T12:38:11.889Z,17.63
2022-12-06T12:40:42.680Z,12.93
2022-12-06T12:43:12.415Z,13.03
2022-12-06T12:46:05.486Z,13.67
2022-12-06T12:48:32.720Z,15.30
2022-12-06T12:51:02.946Z,16.77
2022-12-06T12:53:32.765Z,20.33
2022-12-06T12:56:33.033Z,17.00
2022-12-06T12:59:14.865Z,15.37
2022-12-06T13:02:06.603Z,15.80
2022-12-06T13:05:05.088Z,17.87
2022-12-06T13:07:43.030Z,19.53
2022-12-06T13:10:21.875Z,17.97
2022-12-06T13:12:57.946Z,14.40
2022-12-06T13:15:40.624Z,14.87
2022-12-06T13:18:14.040Z,16.17
2022-12-06T13:20:41.658Z,17.50
2022-12-06T13:23:12.529Z,18.53
2022-12-06T13:25:39.953Z,17.07
2022-12-06T13:28:17.323Z,16.87
2022-12-06T13:30:45.571Z,15.10
2022-12-06T13:33:22.752Z,15.77
2022-12-06T13:35:58.152Z,16.27
2022-12-06T13:38:30.885Z,16.37
2022-12-06T13:41:05.832Z,16.23
2022-12-06T13:43:36.516Z,16.23
2022-12-06T13:46:09.529Z,15.43
2022-12-06T13:48:49.314Z,15.33
2022-12-06T13:51:39.480Z,15.67
2022-12-06T13:54:06.497Z,15.83
2022-12-06T13:56:33.453Z,16.27
2022-12-06T13:59:12.850Z,17.30
2022-12-06T14:01:57.095Z,16.63
2022-12-06T14:04:24.098Z,16.80
2022-12-06T14:06:57.004Z,18.00
2022-12-06T14:09:28.873Z,17.87
2022-12-06T14:12:00.633Z,18.80
2022-12-06T14:14:27.755Z,18.80
2022-12-06T14:17:00.536Z,18.30
2022-12-06T14:19:40.815Z,18.63
2022-12-06T14:22:24.101Z,19.00
2022-12-06T14:25:17.326Z,18.80
2022-12-06T14:27:48.627Z,19.40
2022-12-06T14:30:25.935Z,18.27
2022-12-06T14:32:55.983Z,19.27
2022-12-06T14:35:28.025Z,19.27
2022-12-06T14:38:15.112Z,19.67
2022-12-06T14:41:02.685Z,17.10
2022-12-06T14:43:32.208Z,18.20
2022-12-06T14:46:01.880Z,18.73
2022-12-06T14:48:51.092Z,17.80
2022-12-06T14:51:36.328Z,17.47
2022-12-06T14:54:28.099Z,18.47
2022-12-06T14:56:55.239Z,18.67
2022-12-06T15:00:03.144Z,17.63
2022-12-06T15:02:23.928Z,18.37
2022-12-06T15:04:51.156Z,16.90
2022-12-06T15:07:37.110Z,19.70
2022-12-06T15:10:25.749Z,17.67
2022-12-06T15:12:56.121Z,19.63
2022-12-06T15:15:35.538Z,18.80
2022-12-06T15:18:25.516Z,19.80
2022-12-06T15:20:54.113Z,19.90
2022-12-06T15:23:38.890Z,20.03
2022-12-06T15:26:08.128Z,21.63
2022-12-06T15:28:35.937Z,20.90
2022-12-06T15:31:13.664Z,21.33
2022-12-06T15:33:40.820Z,20.37
2022-12-06T15:36:09.683Z,20.27
2022-12-06T15:38:36.770Z,19.20
2022-12-06T15:41:03.849Z,18.97
2022-12-06T15:43:33.861Z,20.60
2022-12-06T15:46:03.855Z,22.07
2022-12-06T15:48:34.728Z,23.80
2022-12-06T15:51:02.460Z,24.30
2022-12-06T15:53:30.525Z,24.73
2022-12-06T15:55:57.660Z,24.70
2022-12-06T15:58:24.741Z,23.70
2022-12-06T16:00:51.980Z,23.40
2022-12-06T16:03:19.117Z,22.33
2022-12-06T16:05:46.425Z,22.47
2022-12-06T16:08:13.463Z,27.03
2022-12-06T16:11:10.884Z,24.70
2022-12-06T16:13:27.646Z,23.67
2022-12-06T16:15:54.813Z,24.00
2022-12-06T16:18:22.043Z,21.40
2022-12-06T16:20:49.604Z,21.47
2022-12-06T16:24:11.243Z,23.63
2022-12-06T16:26:25.855Z,26.40
2022-12-06T16:28:53.010Z,25.40
2022-12-06T16:31:20.076Z,23.83
2022-12-06T16:33:47.221Z,22.47
2022-12-06T16:36:21.322Z,21.27
2022-12-06T16:38:54.145Z,21.23
2022-12-06T16:41:24.589Z,21.30
2022-12-06T16:43:51.889Z,20.27
2022-12-06T16:46:27.703Z,21.73
2022-12-06T16:49:16.072Z,21.13
2022-12-06T16:51:48.506Z,21.20
2022-12-06T16:54:16.594Z,20.13
2022-12-06T16:56:44.482Z,21.37
2022-12-06T16:59:18.665Z,21.70
2022-12-06T17:01:54.240Z,21.33
2022-12-06T17:04:22.141Z,19.80
2022-12-06T17:06:49.954Z,18.63
2022-12-06T17:09:17.270Z,18.77
2022-12-06T17:12:02.845Z,21.03
2022-12-06T17:14:30.291Z,20.57
2022-12-06T17:16:59.217Z,21.20
2022-12-06T17:19:28.483Z,20.80
2022-12-06T17:21:55.760Z,21.13
2022-12-06T17:24:25.357Z,21.10
2022-12-06T17:26:56.036Z,22.70
2022-12-06T17:29:24.118Z,22.50
2022-12-06T17:31:52.047Z,22.20
2022-12-06T17:34:20.193Z,23.07
2022-12-06T17:36:48.723Z,22.63
2022-12-06T17:39:18.695Z,24.17
2022-12-06T17:42:04.619Z,25.00
2022-12-06T17:44:32.788Z,24.37
2022-12-06T17:47:00.161Z,28.40
2022-12-06T17:49:28.009Z,26.63
2022-12-06T17:51:55.342Z,26.63
2022-12-06T17:54:22.743Z,26.53
2022-12-06T17:56:56.165Z,25.73
2022-12-06T17:59:27.062Z,26.13
2022-12-06T18:02:15.338Z,28.33
2022-12-06T18:04:44.038Z,24.93
2022-12-06T18:07:13.225Z,27.90
2022-12-06T18:09:40.545Z,27.30
2022-12-06T18:12:12.692Z,27.57
2022-12-06T18:14:39.675Z,26.17
2022-12-06T18:17:06.808Z,27.20
2022-12-06T18:19:34.554Z,29.57
2022-12-06T18:22:01.603Z,26.63
2022-12-06T18:24:33.557Z,28.17
2022-12-06T18:27:03.014Z,30.33
2022-12-06T18:29:30.046Z,30.80
2022-12-06T18:31:57.506Z,29.07
2022-12-06T18:34:24.946Z,30.33
2022-12-06T18:36:52.197Z,28.93
2022-12-06T18:39:26.115Z,30.37
2022-12-06T18:41:54.516Z,31.83
2022-12-06T18:44:21.835Z,32.40
2022-12-06T18:46:48.853Z,34.37
2022-12-06T18:49:16.227Z,30.10
2022-12-06T18:51:43.514Z,34.03
2022-12-06T18:54:13.763Z,34.40
2022-12-06T18:56:41.521Z,34.10
2022-12-06T18:59:10.557Z,34.57
2022-12-06T19:01:39.198Z,35.90
2022-12-06T19:04:07.823Z,36.07
2022-12-06T19:06:37.525Z,35.47
2022-12-06T19:09:07.470Z,35.13
2022-12-06T19:11:39.480Z,34.17
2022-12-06T19:14:06.820Z,33.07
2022-12-06T19:16:45.092Z,30.50
2022-12-06T19:19:16.875Z,30.20
2022-12-06T19:21:46.716Z,29.47
2022-12-06T19:24:17.274Z,27.43
2022-12-06T19:26:44.982Z,29.03
2022-12-06T19:29:12.958Z,29.27
2022-12-06T19:31:40.099Z,28.73
2022-12-06T19:34:07.280Z,28.90
2022-12-06T19:36:34.285Z,29.47
2022-12-06T19:39:04.586Z,31.50
2022-12-06T19:41:31.973Z,29.77
2022-12-06T19:44:17.805Z,28.53
2022-12-06T19:46:46.651Z,31.07
2022-12-06T19:49:15.693Z,28.67
2022-12-06T19:51:45.514Z,29.40
2022-12-06T19:54:19.508Z,27.10
2022-12-06T19:56:47.809Z,26.77
2022-12-06T19:59:14.817Z,28.30
2022-12-06T20:01:44.485Z,25.47
2022-12-06T20:04:17.233Z,26.73
2022-12-06T20:06:44.645Z,27.40
2022-12-06T20:09:13.026Z,28.20
2022-12-06T20:12:01.336Z,29.43
2022-12-06T20:14:31.436Z,28.60
2022-12-06T20:16:58.638Z,28.83
2022-12-06T20:19:25.748Z,28.97
2022-12-06T20:21:52.846Z,28.13
2022-12-06T20:24:21.883Z,31.40
2022-12-06T20:26:50.766Z,31.10
2022-12-06T20:29:18.746Z,30.70
2022-12-06T20:31:47.225Z,28.47
2022-12-06T20:34:15.620Z,28.43
2022-12-06T20:36:43.734Z,29.63
2022-12-06T20:39:20.488Z,32.30
2022-12-06T20:41:48.723Z,31.77
2022-12-06T20:44:16.809Z,32.57
2022-12-06T20:46:44.342Z,30.30
2022-12-06T20:49:11.583Z,31.13
2022-12-06T20:51:38.754Z,30.77
2022-12-06T20:54:07.492Z,31.87
2022-12-06T20:56:37.340Z,30.20
2022-12-06T20:59:06.075Z,30.87
2022-12-06T21:01:37.681Z,28.30
2022-12-06T21:04:04.910Z,26.37
2022-12-06T21:06:32.024Z,28.30
2022-12-06T21:08:59.089Z,28.90
2022-12-06T21:11:26.165Z,27.40
2022-12-06T21:13:54.866Z,27.13
2022-12-06T21:16:27.651Z,27.57
2022-12-06T21:18:57.253Z,26.07
2022-12-06T21:21:28.298Z,27.10
2022-12-06T21:23:58.028Z,28.43
2022-12-06T21:26:25.036Z,27.80
2022-12-06T21:28:53.424Z,29.37
2022-12-06T21:31:21.352Z,27.87
2022-12-06T21:33:48.426Z,28.63
2022-12-06T21:36:15.510Z,31.97
2022-12-06T21:38:42.631Z,30.97
2022-12-06T21:41:13.135Z,34.23
2022-12-06T21:43:40.322Z,32.23
2022-12-06T21:46:10.874Z,29.23
2022-12-06T21:48:38.413Z,26.07
2022-12-06T21:51:08.208Z,29.13
2022-12-06T21:53:35.889Z,29.07
2022-12-06T21:56:07.758Z,31.33
2022-12-06T21:58:35.758Z,30.07
2022-12-06T22:01:11.747Z,29.60
2022-12-06T22:03:39.555Z,29.63
2022-12-06T22:06:09.136Z,29.83
2022-12-06T22:08:36.896Z,29.33
2022-12-06T22:11:08.402Z,28.53
2022-12-06T22:13:35.958Z,26.53
2022-12-06T22:16:07.626Z,25.43
2022-12-06T22:18:42.656Z,26.10
2022-12-06T22:21:16.926Z,24.87
2022-12-06T22:23:44.873Z,26.33
2022-12-06T22:26:14.974Z,25.97
2022-12-06T22:28:42.396Z,26.40
2022-12-06T22:31:21.878Z,28.57
2022-12-06T22:33:49.993Z,26.00
2022-12-06T22:36:17.950Z,28.30
2022-12-06T22:38:48.040Z,28.23
2022-12-06T22:41:15.150Z,30.13
2022-12-06T22:43:42.085Z,28.40
2022-12-06T22:46:12.792Z,26.47
2022-12-06T22:48:40.825Z,26.67
2022-12-06T22:51:12.076Z,26.60
2022-12-06T22:53:44.414Z,28.80
2022-12-06T22:56:12.299Z,26.77
2022-12-06T22:58:39.423Z,29.30
2022-12-06T23:01:17.208Z,27.33
2022-12-06T23:03:49.359Z,25.63
2022-12-06T23:06:18.460Z,26.83
2022-12-06T23:08:46.542Z,24.33
2022-12-06T23:11:29.037Z,24.90
2022-12-06T23:13:57.028Z,26.10
2022-12-06T23:16:26.903Z,23.43
2022-12-06T23:18:54.457Z,23.53
2022-12-06T23:21:33.388Z,24.37
2022-12-06T23:24:05.794Z,23.87
2022-12-06T23:26:36.059Z,24.07
2022-12-06T23:29:03.950Z,25.10
2022-12-06T23:31:33.622Z,25.17
2022-12-06T23:34:11.577Z,30.70
2022-12-06T23:36:38.940Z,33.20
2022-12-06T23:39:06.855Z,34.63
2022-12-06T23:41:34.487Z,35.37
2022-12-06T23:44:01.612Z,36.57
2022-12-06T23:46:31.516Z,34.33
2022-12-06T23:48:59.035Z,32.77
2022-12-06T23:51:28.618Z,33.33
2022-12-06T23:53:57.780Z,34.10
2022-12-06T23:56:28.325Z,36.87
2022-12-06T23:58:55.747Z,34.70
